createdAt,value
2019-02-17T00:01:52.250Z,1.00
2019-02-17T00:07:15.877Z,0.90
2019-02-17T00:12:40.878Z,0.85
2019-02-17T00:18:05.298Z,0.65
2019-02-17T00:23:29.337Z,0.51
2019-02-17T00:28:59.400Z,0.42
2019-02-17T00:34:20.146Z,0.26
2019-02-17T00:39:44.471Z,0.11
2019-02-17T00:45:09.715Z,0.03
2019-02-17T00:50:34.387Z,0.01
2019-02-17T00:55:58.236Z,-0.18
2019-02-17T01:01:22.026Z,-0.32
2019-02-17T01:06:46.504Z,-0.21
2019-02-17T01:12:11.353Z,-0.11
2019-02-17T01:17:35.811Z,0.08
2019-02-17T01:22:59.605Z,-0.03
2019-02-17T01:28:23.563Z,0.01
2019-02-17T01:33:48.256Z,0.01
2019-02-17T01:39:13.080Z,-0.04
2019-02-17T01:44:36.959Z,0.01
2019-02-17T01:50:00.601Z,-0.07
2019-02-17T01:55:24.907Z,-0.37
2019-02-17T02:00:49.606Z,-0.42
2019-02-17T02:06:13.363Z,-0.43
2019-02-17T02:11:38.422Z,-0.52
2019-02-17T02:17:03.185Z,-0.44
2019-02-17T02:22:27.772Z,-0.22
2019-02-17T02:27:51.447Z,-0.11
2019-02-17T02:33:15.737Z,0.08
2019-02-17T02:38:40.354Z,0.07
2019-02-17T02:44:05.274Z,0.10
2019-02-17T02:49:30.349Z,0.27
2019-02-17T02:54:54.177Z,0.31
2019-02-17T03:00:18.176Z,0.24
2019-02-17T03:05:53.319Z,0.28
2019-02-17T03:11:17.114Z,0.37
2019-02-17T03:16:41.303Z,0.25
2019-02-17T03:22:05.912Z,0.22
2019-02-17T03:27:30.328Z,0.19
2019-02-17T03:32:55.142Z,-0.01
2019-02-17T03:38:18.912Z,-0.34
2019-02-17T03:43:43.560Z,-0.37
2019-02-17T03:49:08.355Z,-0.52
2019-02-17T03:54:33.170Z,-0.54
2019-02-17T03:59:57.987Z,-0.37
2019-02-17T04:05:23.058Z,-0.30
2019-02-17T04:10:46.859Z,-0.44
2019-02-17T04:16:10.813Z,-0.63
2019-02-17T04:21:35.172Z,-0.75
2019-02-17T04:26:59.152Z,-0.64
2019-02-17T04:32:23.137Z,-0.82
2019-02-17T04:37:47.844Z,-0.99
2019-02-17T04:43:12.589Z,-1.10
2019-02-17T04:48:37.296Z,-1.28
2019-02-17T04:54:01.413Z,-1.37
2019-02-17T04:59:25.830Z,-1.27
2019-02-17T05:04:49.657Z,-1.24
2019-02-17T05:10:14.439Z,-1.38
2019-02-17T05:15:39.252Z,-1.21
2019-02-17T05:21:03.689Z,-1.04
2019-02-17T05:26:27.291Z,-1.18
2019-02-17T05:31:52.066Z,-1.16
2019-02-17T05:37:16.178Z,-0.98
2019-02-17T05:42:40.523Z,-0.85
2019-02-17T05:48:04.187Z,-0.91
2019-02-17T05:53:28.590Z,-0.94
2019-02-17T05:58:53.163Z,-0.94
2019-02-17T06:04:17.626Z,-1.02
2019-02-17T06:09:42.298Z,-1.09
2019-02-17T06:15:06.932Z,-1.07
2019-02-17T06:20:31.758Z,-1.07
2019-02-17T06:25:55.710Z,-1.16
2019-02-17T06:31:19.355Z,-1.14
2019-02-17T06:36:43.854Z,-1.01
2019-02-17T06:42:08.608Z,-0.74
2019-02-17T06:47:33.739Z,-0.45
2019-02-17T06:52:58.979Z,-0.02
2019-02-17T06:58:23.661Z,0.58
2019-02-17T07:03:47.791Z,1.20
2019-02-17T07:09:11.656Z,1.79
2019-02-17T07:14:35.297Z,2.30
2019-02-17T07:19:59.684Z,2.96
2019-02-17T07:25:30.020Z,2.86
2019-02-17T07:30:48.970Z,3.66
2019-02-17T07:36:13.763Z,3.68
2019-02-17T07:41:38.207Z,4.12
2019-02-17T07:47:02.010Z,4.77
2019-02-17T07:52:26.722Z,5.07
2019-02-17T07:57:51.303Z,5.04
2019-02-17T08:03:16.181Z,4.63
2019-02-17T08:08:39.877Z,4.02
2019-02-17T08:14:03.970Z,3.91
2019-02-17T08:19:28.076Z,4.31
2019-02-17T08:24:51.852Z,4.73
2019-02-17T08:30:16.240Z,4.65
2019-02-17T08:35:40.913Z,4.88
2019-02-17T08:41:05.542Z,4.89
2019-02-17T08:46:30.074Z,5.27
2019-02-17T08:51:54.774Z,5.46
2019-02-17T08:57:19.009Z,5.69
2019-02-17T09:02:42.875Z,6.01
2019-02-17T09:08:06.683Z,6.41
2019-02-17T09:13:32.034Z,6.62
2019-02-17T09:18:56.772Z,6.84
2019-02-17T09:24:20.757Z,7.34
2019-02-17T09:29:46.934Z,7.39
2019-02-17T09:35:10.595Z,7.75
2019-02-17T09:40:35.109Z,8.94
2019-02-17T09:46:00.682Z,9.35
2019-02-17T09:51:25.248Z,9.13
2019-02-17T09:56:49.988Z,10.27
2019-02-17T10:02:14.129Z,11.01
2019-02-17T10:07:38.613Z,11.39
2019-02-17T10:13:03.359Z,12.29
2019-02-17T10:18:27.277Z,12.66
2019-02-17T10:23:51.987Z,12.88
2019-02-17T10:29:16.734Z,13.28
2019-02-17T10:34:41.493Z,13.70
2019-02-17T10:40:06.908Z,14.12
2019-02-17T10:45:31.138Z,14.93
2019-02-17T10:50:55.820Z,12.86
2019-02-17T10:56:20.523Z,13.48
2019-02-17T11:01:45.013Z,13.88
2019-02-17T11:07:09.820Z,14.20
2019-02-17T11:12:34.552Z,14.94
2019-02-17T11:17:59.587Z,15.89
2019-02-17T11:23:24.126Z,15.37
2019-02-17T11:28:48.202Z,14.98
2019-02-17T11:34:12.605Z,15.75
2019-02-17T11:39:37.707Z,15.96
2019-02-17T11:45:01.524Z,16.23
2019-02-17T11:50:26.079Z,15.68
2019-02-17T11:55:50.949Z,16.07
2019-02-17T12:01:15.115Z,16.03
2019-02-17T12:06:39.608Z,16.08
2019-02-17T12:12:03.502Z,16.34
2019-02-17T12:17:27.921Z,17.04
2019-02-17T12:22:57.684Z,16.57
2019-02-17T12:28:26.821Z,16.04
2019-02-17T12:33:50.987Z,16.29
2019-02-17T12:39:15.477Z,16.63
2019-02-17T12:44:39.346Z,16.25
2019-02-17T12:50:05.043Z,17.12
2019-02-17T12:55:30.011Z,17.19
2019-02-17T13:00:54.697Z,17.09
2019-02-17T13:06:19.169Z,16.95
2019-02-17T13:11:43.689Z,17.57
2019-02-17T13:17:08.672Z,17.77
2019-02-17T13:22:32.285Z,17.69
2019-02-17T13:27:56.186Z,17.28
2019-02-17T13:33:20.910Z,17.61
2019-02-17T13:38:45.489Z,17.09
2019-02-17T13:44:09.800Z,17.68
2019-02-17T13:49:34.521Z,17.86
2019-02-17T13:54:58.462Z,17.73
2019-02-17T14:00:22.602Z,18.30
2019-02-17T14:05:46.448Z,17.92
2019-02-17T14:11:11.974Z,17.87
2019-02-17T14:16:36.689Z,17.72
2019-02-17T14:22:01.143Z,17.83
2019-02-17T14:27:25.695Z,17.58
2019-02-17T14:32:50.314Z,17.88
2019-02-17T14:38:14.478Z,17.75
2019-02-17T14:43:38.373Z,17.89
2019-02-17T14:49:02.642Z,17.70
2019-02-17T14:54:27.343Z,17.30
2019-02-17T14:59:52.024Z,16.88
2019-02-17T15:05:15.799Z,16.16
2019-02-17T15:10:39.944Z,15.78
2019-02-17T15:16:04.597Z,15.23
2019-02-17T15:21:28.322Z,15.12
2019-02-17T15:26:52.902Z,14.69
2019-02-17T15:32:17.507Z,14.49
2019-02-17T15:37:41.356Z,14.64
2019-02-17T15:43:05.915Z,14.29
2019-02-17T15:48:31.480Z,13.84
2019-02-17T15:53:55.534Z,13.18
2019-02-17T15:59:20.409Z,12.64
2019-02-17T16:04:45.188Z,12.18
2019-02-17T16:10:09.962Z,11.75
2019-02-17T16:15:33.723Z,11.30
2019-02-17T16:20:58.769Z,11.02
2019-02-17T16:26:23.570Z,10.73
2019-02-17T16:31:47.420Z,10.49
2019-02-17T16:37:11.231Z,10.40
2019-02-17T16:42:35.044Z,10.23
2019-02-17T16:47:58.833Z,10.00
2019-02-17T16:53:23.207Z,9.90
2019-02-17T16:58:47.083Z,9.93
2019-02-17T17:04:10.843Z,9.78
2019-02-17T17:09:34.551Z,9.44
2019-02-17T17:14:59.395Z,9.16
2019-02-17T17:20:24.317Z,8.99
2019-02-17T17:25:49.510Z,8.78
2019-02-17T17:31:15.296Z,8.50
2019-02-17T17:36:39.149Z,8.31
2019-02-17T17:42:02.951Z,8.02
2019-02-17T17:47:27.441Z,7.83
2019-02-17T17:52:51.941Z,7.73
2019-02-17T17:58:15.526Z,7.77
2019-02-17T18:03:40.198Z,7.64
2019-02-17T18:09:06.812Z,7.40
2019-02-17T18:14:31.238Z,7.07
2019-02-17T18:19:55.923Z,6.93
2019-02-17T18:25:20.238Z,6.57
2019-02-17T18:30:45.053Z,6.77
2019-02-17T18:36:08.806Z,6.81
2019-02-17T18:41:33.516Z,6.76
2019-02-17T18:46:57.209Z,6.77
2019-02-17T18:52:22.020Z,6.57
2019-02-17T18:57:50.063Z,6.22
2019-02-17T19:03:11.285Z,6.21
2019-02-17T19:08:35.722Z,6.44
2019-02-17T19:14:00.787Z,6.36
2019-02-17T19:19:25.276Z,6.21
2019-02-17T19:24:49.425Z,6.19
2019-02-17T19:30:14.857Z,6.18
2019-02-17T19:35:42.201Z,6.12
2019-02-17T19:41:06.216Z,6.00
2019-02-17T19:46:30.056Z,5.70
2019-02-17T19:51:54.108Z,5.32
2019-02-17T19:57:17.911Z,4.97
2019-02-17T20:02:55.067Z,4.86
2019-02-17T20:08:19.900Z,4.94
2019-02-17T20:13:44.589Z,4.69
2019-02-17T20:19:09.894Z,4.53
2019-02-17T20:24:33.726Z,4.67
2019-02-17T20:29:58.355Z,4.70
2019-02-17T20:35:22.383Z,4.75
2019-02-17T20:40:47.449Z,4.70
2019-02-17T20:46:12.115Z,4.71
2019-02-17T20:51:36.774Z,4.53
2019-02-17T20:57:00.673Z,4.38
2019-02-17T21:02:24.523Z,4.46
2019-02-17T21:07:48.091Z,4.62
2019-02-17T21:13:11.628Z,4.35
2019-02-17T21:18:36.712Z,4.16
2019-02-17T21:24:01.064Z,4.26
2019-02-17T21:29:25.723Z,4.20
2019-02-17T21:34:50.124Z,4.21
2019-02-17T21:40:15.606Z,4.32
2019-02-17T21:45:39.679Z,4.20
2019-02-17T21:51:04.557Z,3.84
2019-02-17T21:56:29.272Z,3.56
2019-02-17T22:01:54.044Z,3.36
2019-02-17T22:07:17.958Z,3.15
2019-02-17T22:12:41.756Z,3.00
2019-02-17T22:18:06.697Z,2.82
2019-02-17T22:23:30.502Z,2.68
2019-02-17T22:28:55.704Z,2.56
2019-02-17T22:34:20.056Z,2.34
2019-02-17T22:39:43.890Z,2.20
2019-02-17T22:45:08.695Z,2.19
2019-02-17T22:50:33.496Z,2.24
2019-02-17T22:55:57.404Z,2.34
2019-02-17T23:01:26.482Z,2.61
2019-02-17T23:06:54.103Z,2.62
2019-02-17T23:12:17.226Z,2.78
2019-02-17T23:17:40.885Z,2.79
2019-02-17T23:23:04.654Z,2.77
2019-02-17T23:28:29.318Z,2.53
2019-02-17T23:33:53.043Z,2.30
2019-02-17T23:39:17.016Z,2.15
2019-02-17T23:44:41.536Z,2.19
2019-02-17T23:50:06.893Z,2.03
2019-02-17T23:55:31.333Z,2.13
